sensor_id;sensor_type;location;lat;lon;timestamp;temperature;humidity
10051;DHT22;5065;46.942;7.432;2023-08-06T00:00:05;19.70;99.90
10051;DHT22;5065;46.942;7.432;2023-08-06T00:02:42;19.70;99.90
10051;DHT22;5065;46.942;7.432;2023-08-06T00:05:10;19.70;99.90
10051;DHT22;5065;46.942;7.432;2023-08-06T00:07:40;19.60;99.90
10051;DHT22;5065;46.942;7.432;2023-08-06T00:10:07;19.70;99.90
10051;DHT22;5065;46.942;7.432;2023-08-06T00:12:35;19.60;99.90
10051;DHT22;5065;46.942;7.432;2023-08-06T00:15:03;19.60;99.90
10051;DHT22;5065;46.942;7.432;2023-08-06T00:17:33;19.60;99.90
10051;DHT22;5065;46.942;7.432;2023-08-06T00:20:01;19.60;99.90
10051;DHT22;5065;46.942;7.432;2023-08-06T00:22:30;19.60;99.90
10051;DHT22;5065;46.942;7.432;2023-08-06T00:24:59;19.60;99.90
10051;DHT22;5065;46.942;7.432;2023-08-06T00:27:26;19.60;99.90
10051;DHT22;5065;46.942;7.432;2023-08-06T00:29:54;19.50;99.90
10051;DHT22;5065;46.942;7.432;2023-08-06T00:32:21;19.60;99.90
10051;DHT22;5065;46.942;7.432;2023-08-06T00:34:48;19.60;99.90
10051;DHT22;5065;46.942;7.432;2023-08-06T00:37:16;19.40;99.90
10051;DHT22;5065;46.942;7.432;2023-08-06T00:39:43;19.50;99.90
10051;DHT22;5065;46.942;7.432;2023-08-06T00:42:12;19.50;99.90
10051;DHT22;5065;46.942;7.432;2023-08-06T00:44:39;19.50;99.90
10051;DHT22;5065;46.942;7.432;2023-08-06T00:47:06;19.50;99.90
10051;DHT22;5065;46.942;7.432;2023-08-06T00:49:35;19.50;99.90
10051;DHT22;5065;46.942;7.432;2023-08-06T00:52:03;19.50;99.90
10051;DHT22;5065;46.942;7.432;2023-08-06T00:54:30;19.50;99.90
10051;DHT22;5065;46.942;7.432;2023-08-06T00:56:59;19.50;99.90
10051;DHT22;5065;46.942;7.432;2023-08-06T00:59:30;19.50;99.90
10051;DHT22;5065;46.942;7.432;2023-08-06T01:01:57;19.50;99.90
10051;DHT22;5065;46.942;7.432;2023-08-06T01:04:25;19.50;99.90
10051;DHT22;5065;46.942;7.432;2023-08-06T01:06:59;19.50;99.90
10051;DHT22;5065;46.942;7.432;2023-08-06T01:09:35;19.40;99.90
10051;DHT22;5065;46.942;7.432;2023-08-06T01:12:12;19.40;99.90
10051;DHT22;5065;46.942;7.432;2023-08-06T01:14:52;19.50;99.90
10051;DHT22;5065;46.942;7.432;2023-08-06T01:17:20;19.50;99.90
10051;DHT22;5065;46.942;7.432;2023-08-06T01:19:48;19.40;99.90
10051;DHT22;5065;46.942;7.432;2023-08-06T01:22:16;19.40;99.90
10051;DHT22;5065;46.942;7.432;2023-08-06T01:24:48;19.60;99.90
10051;DHT22;5065;46.942;7.432;2023-08-06T01:27:23;19.40;99.90
10051;DHT22;5065;46.942;7.432;2023-08-06T01:29:59;19.50;99.90
10051;DHT22;5065;46.942;7.432;2023-08-06T01:32:31;19.40;99.90
10051;DHT22;5065;46.942;7.432;2023-08-06T01:35:00;19.40;99.90
10051;DHT22;5065;46.942;7.432;2023-08-06T01:37:30;19.50;99.90
10051;DHT22;5065;46.942;7.432;2023-08-06T01:39:58;19.50;99.90
10051;DHT22;5065;46.942;7.432;2023-08-06T01:42:25;19.50;99.90
10051;DHT22;5065;46.942;7.432;2023-08-06T01:44:52;19.40;99.90
10051;DHT22;5065;46.942;7.432;2023-08-06T01:47:19;19.30;99.90
10051;DHT22;5065;46.942;7.432;2023-08-06T01:49:46;19.40;99.90
10051;DHT22;5065;46.942;7.432;2023-08-06T01:52:13;19.40;99.90
10051;DHT22;5065;46.942;7.432;2023-08-06T01:54:42;19.30;99.90
10051;DHT22;5065;46.942;7.432;2023-08-06T01:57:09;19.40;99.90
10051;DHT22;5065;46.942;7.432;2023-08-06T01:59:36;19.40;99.90
10051;DHT22;5065;46.942;7.432;2023-08-06T02:02:04;19.40;99.90
10051;DHT22;5065;46.942;7.432;2023-08-06T02:04:31;19.40;99.90
10051;DHT22;5065;46.942;7.432;2023-08-06T02:06:59;19.40;99.90
10051;DHT22;5065;46.942;7.432;2023-08-06T02:09:26;19.60;99.90
10051;DHT22;5065;46.942;7.432;2023-08-06T02:11:55;19.30;99.90
10051;DHT22;5065;46.942;7.432;2023-08-06T02:14:23;19.40;99.90
10051;DHT22;5065;46.942;7.432;2023-08-06T02:16:50;19.40;99.90
10051;DHT22;5065;46.942;7.432;2023-08-06T02:19:17;19.30;99.90
10051;DHT22;5065;46.942;7.432;2023-08-06T02:21:44;19.20;99.90
10051;DHT22;5065;46.942;7.432;2023-08-06T02:24:11;19.50;99.90
10051;DHT22;5065;46.942;7.432;2023-08-06T02:26:38;19.30;99.90
10051;DHT22;5065;46.942;7.432;2023-08-06T02:29:07;19.40;99.90
10051;DHT22;5065;46.942;7.432;2023-08-06T02:31:34;19.30;99.90
10051;DHT22;5065;46.942;7.432;2023-08-06T02:34:01;19.30;99.90
10051;DHT22;5065;46.942;7.432;2023-08-06T02:36:28;19.30;99.90
10051;DHT22;5065;46.942;7.432;2023-08-06T02:38:55;19.30;99.90
10051;DHT22;5065;46.942;7.432;2023-08-06T02:41:22;19.20;99.90
10051;DHT22;5065;46.942;7.432;2023-08-06T02:43:49;19.20;99.90
10051;DHT22;5065;46.942;7.432;2023-08-06T02:46:18;19.20;99.90
10051;DHT22;5065;46.942;7.432;2023-08-06T02:48:45;19.20;99.90
10051;DHT22;5065;46.942;7.432;2023-08-06T02:51:12;19.20;99.90
10051;DHT22;5065;46.942;7.432;2023-08-06T02:53:39;19.10;99.90
10051;DHT22;5065;46.942;7.432;2023-08-06T02:56:06;19.10;99.90
10051;DHT22;5065;46.942;7.432;2023-08-06T02:58:32;19.10;99.90
10051;DHT22;5065;46.942;7.432;2023-08-06T03:01:00;19.00;99.90
10051;DHT22;5065;46.942;7.432;2023-08-06T03:03:30;19.00;99.90
10051;DHT22;5065;46.942;7.432;2023-08-06T03:05:56;19.00;99.90
10051;DHT22;5065;46.942;7.432;2023-08-06T03:08:24;18.90;99.90
10051;DHT22;5065;46.942;7.432;2023-08-06T03:10:51;18.90;99.90
10051;DHT22;5065;46.942;7.432;2023-08-06T03:13:19;18.70;99.90
10051;DHT22;5065;46.942;7.432;2023-08-06T03:15:53;18.80;99.90
10051;DHT22;5065;46.942;7.432;2023-08-06T03:18:20;18.60;99.90
10051;DHT22;5065;46.942;7.432;2023-08-06T03:20:49;18.70;99.90
10051;DHT22;5065;46.942;7.432;2023-08-06T03:23:16;18.70;99.90
10051;DHT22;5065;46.942;7.432;2023-08-06T03:25:43;18.70;99.90
10051;DHT22;5065;46.942;7.432;2023-08-06T03:28:11;18.80;99.90
10051;DHT22;5065;46.942;7.432;2023-08-06T03:30:38;18.60;99.90
10051;DHT22;5065;46.942;7.432;2023-08-06T03:33:05;18.70;99.90
10051;DHT22;5065;46.942;7.432;2023-08-06T03:35:32;18.60;99.90
10051;DHT22;5065;46.942;7.432;2023-08-06T03:38:00;18.60;99.90
10051;DHT22;5065;46.942;7.432;2023-08-06T03:40:27;18.50;99.90
10051;DHT22;5065;46.942;7.432;2023-08-06T03:42:55;18.50;99.90
10051;DHT22;5065;46.942;7.432;2023-08-06T03:45:22;18.50;99.90
10051;DHT22;5065;46.942;7.432;2023-08-06T03:47:49;18.50;99.90
10051;DHT22;5065;46.942;7.432;2023-08-06T03:50:16;18.50;99.90
10051;DHT22;5065;46.942;7.432;2023-08-06T03:52:43;18.50;99.90
10051;DHT22;5065;46.942;7.432;2023-08-06T03:55:11;18.30;99.90
10051;DHT22;5065;46.942;7.432;2023-08-06T03:57:38;18.50;99.90
10051;DHT22;5065;46.942;7.432;2023-08-06T04:00:07;18.40;99.90
10051;DHT22;5065;46.942;7.432;2023-08-06T04:02:34;18.50;99.90
10051;DHT22;5065;46.942;7.432;2023-08-06T04:05:01;18.50;99.90
10051;DHT22;5065;46.942;7.432;2023-08-06T04:07:28;18.50;99.90
10051;DHT22;5065;46.942;7.432;2023-08-06T04:09:58;18.40;99.90
10051;DHT22;5065;46.942;7.432;2023-08-06T04:12:27;18.40;99.90
10051;DHT22;5065;46.942;7.432;2023-08-06T04:14:55;18.40;99.90
10051;DHT22;5065;46.942;7.432;2023-08-06T04:17:22;18.40;99.90
10051;DHT22;5065;46.942;7.432;2023-08-06T04:19:57;18.40;99.90
10051;DHT22;5065;46.942;7.432;2023-08-06T04:22:25;18.40;99.90
10051;DHT22;5065;46.942;7.432;2023-08-06T04:24:52;18.40;99.90
10051;DHT22;5065;46.942;7.432;2023-08-06T04:27:19;18.40;99.90
10051;DHT22;5065;46.942;7.432;2023-08-06T04:29:48;18.60;99.90
10051;DHT22;5065;46.942;7.432;2023-08-06T04:32:15;18.40;99.90
10051;DHT22;5065;46.942;7.432;2023-08-06T04:34:44;18.40;99.90
10051;DHT22;5065;46.942;7.432;2023-08-06T04:37:12;18.30;99.90
10051;DHT22;5065;46.942;7.432;2023-08-06T04:39:39;18.30;99.90
10051;DHT22;5065;46.942;7.432;2023-08-06T04:42:06;18.20;99.90
10051;DHT22;5065;46.942;7.432;2023-08-06T04:44:33;18.50;99.90
10051;DHT22;5065;46.942;7.432;2023-08-06T04:47:02;18.50;99.90
10051;DHT22;5065;46.942;7.432;2023-08-06T04:49:29;18.30;99.90
10051;DHT22;5065;46.942;7.432;2023-08-06T04:51:56;18.20;99.90
10051;DHT22;5065;46.942;7.432;2023-08-06T04:54:23;18.10;99.90
10051;DHT22;5065;46.942;7.432;2023-08-06T04:56:51;18.00;99.90
10051;DHT22;5065;46.942;7.432;2023-08-06T04:59:18;17.80;99.90
10051;DHT22;5065;46.942;7.432;2023-08-06T05:01:45;17.80;99.90
10051;DHT22;5065;46.942;7.432;2023-08-06T05:04:13;17.80;99.90
10051;DHT22;5065;46.942;7.432;2023-08-06T05:06:40;17.70;99.90
10051;DHT22;5065;46.942;7.432;2023-08-06T05:09:08;17.70;99.90
10051;DHT22;5065;46.942;7.432;2023-08-06T05:11:35;17.60;99.90
10051;DHT22;5065;46.942;7.432;2023-08-06T05:14:03;17.50;99.90
10051;DHT22;5065;46.942;7.432;2023-08-06T05:16:30;17.40;99.90
10051;DHT22;5065;46.942;7.432;2023-08-06T05:18:57;17.40;99.90
10051;DHT22;5065;46.942;7.432;2023-08-06T05:21:25;17.40;99.90
10051;DHT22;5065;46.942;7.432;2023-08-06T05:23:53;17.40;99.90
10051;DHT22;5065;46.942;7.432;2023-08-06T05:26:20;17.30;99.90
10051;DHT22;5065;46.942;7.432;2023-08-06T05:28:47;17.30;99.90
10051;DHT22;5065;46.942;7.432;2023-08-06T05:31:14;17.50;99.90
10051;DHT22;5065;46.942;7.432;2023-08-06T05:33:41;17.30;99.90
10051;DHT22;5065;46.942;7.432;2023-08-06T05:36:08;17.40;99.90
10051;DHT22;5065;46.942;7.432;2023-08-06T05:38:37;17.20;99.90
10051;DHT22;5065;46.942;7.432;2023-08-06T05:41:04;17.20;99.90
10051;DHT22;5065;46.942;7.432;2023-08-06T05:43:31;17.20;99.90
10051;DHT22;5065;46.942;7.432;2023-08-06T05:45:58;17.20;99.90
10051;DHT22;5065;46.942;7.432;2023-08-06T05:48:25;17.20;99.90
10051;DHT22;5065;46.942;7.432;2023-08-06T05:50:53;17.30;99.90
10051;DHT22;5065;46.942;7.432;2023-08-06T05:53:20;17.30;99.90
10051;DHT22;5065;46.942;7.432;2023-08-06T05:55:50;17.40;99.90
10051;DHT22;5065;46.942;7.432;2023-08-06T05:58:17;17.70;99.90
10051;DHT22;5065;46.942;7.432;2023-08-06T06:00:45;17.50;99.90
10051;DHT22;5065;46.942;7.432;2023-08-06T06:03:12;17.70;99.90
10051;DHT22;5065;46.942;7.432;2023-08-06T06:05:39;17.90;99.90
10051;DHT22;5065;46.942;7.432;2023-08-06T06:08:06;18.30;99.90
10051;DHT22;5065;46.942;7.432;2023-08-06T06:10:34;18.70;99.90
10051;DHT22;5065;46.942;7.432;2023-08-06T06:13:03;18.90;99.90
10051;DHT22;5065;46.942;7.432;2023-08-06T06:15:30;19.10;99.90
10051;DHT22;5065;46.942;7.432;2023-08-06T06:17:57;19.10;99.90
10051;DHT22;5065;46.942;7.432;2023-08-06T06:20:24;19.00;99.90
10051;DHT22;5065;46.942;7.432;2023-08-06T06:22:51;18.90;99.90
10051;DHT22;5065;46.942;7.432;2023-08-06T06:25:18;18.90;99.90
10051;DHT22;5065;46.942;7.432;2023-08-06T06:27:45;18.70;99.90
10051;DHT22;5065;46.942;7.432;2023-08-06T06:30:14;18.60;99.90
10051;DHT22;5065;46.942;7.432;2023-08-06T06:32:41;18.50;99.90
10051;DHT22;5065;46.942;7.432;2023-08-06T06:35:08;18.40;99.90
10051;DHT22;5065;46.942;7.432;2023-08-06T06:37:36;18.30;99.90
10051;DHT22;5065;46.942;7.432;2023-08-06T06:40:05;18.20;99.90
10051;DHT22;5065;46.942;7.432;2023-08-06T06:42:34;18.20;99.90
10051;DHT22;5065;46.942;7.432;2023-08-06T06:45:01;18.00;99.90
10051;DHT22;5065;46.942;7.432;2023-08-06T06:47:30;17.90;99.90
10051;DHT22;5065;46.942;7.432;2023-08-06T06:49:57;17.80;99.90
10051;DHT22;5065;46.942;7.432;2023-08-06T06:52:24;17.80;99.90
10051;DHT22;5065;46.942;7.432;2023-08-06T06:54:51;17.70;99.90
10051;DHT22;5065;46.942;7.432;2023-08-06T06:57:19;17.70;99.90
10051;DHT22;5065;46.942;7.432;2023-08-06T06:59:46;18.00;99.90
10051;DHT22;5065;46.942;7.432;2023-08-06T07:02:13;17.90;99.90
10051;DHT22;5065;46.942;7.432;2023-08-06T07:04:41;17.70;99.90
10051;DHT22;5065;46.942;7.432;2023-08-06T07:07:08;17.70;99.90
10051;DHT22;5065;46.942;7.432;2023-08-06T07:09:36;17.70;99.90
10051;DHT22;5065;46.942;7.432;2023-08-06T07:12:03;17.60;99.90
10051;DHT22;5065;46.942;7.432;2023-08-06T07:14:31;17.60;99.90
10051;DHT22;5065;46.942;7.432;2023-08-06T07:16:58;17.60;99.90
10051;DHT22;5065;46.942;7.432;2023-08-06T07:19:25;17.60;99.90
10051;DHT22;5065;46.942;7.432;2023-08-06T07:21:53;17.60;99.90
10051;DHT22;5065;46.942;7.432;2023-08-06T07:24:21;17.60;99.90
10051;DHT22;5065;46.942;7.432;2023-08-06T07:26:48;17.50;99.90
10051;DHT22;5065;46.942;7.432;2023-08-06T07:29:15;17.50;99.90
10051;DHT22;5065;46.942;7.432;2023-08-06T07:31:46;17.60;99.90
10051;DHT22;5065;46.942;7.432;2023-08-06T07:34:15;17.60;99.90
10051;DHT22;5065;46.942;7.432;2023-08-06T07:36:43;17.60;99.90
10051;DHT22;5065;46.942;7.432;2023-08-06T07:39:12;17.60;99.90
10051;DHT22;5065;46.942;7.432;2023-08-06T07:41:39;17.50;99.90
10051;DHT22;5065;46.942;7.432;2023-08-06T07:44:07;17.60;99.90
10051;DHT22;5065;46.942;7.432;2023-08-06T07:46:34;17.60;99.90
10051;DHT22;5065;46.942;7.432;2023-08-06T07:49:01;17.60;99.90
10051;DHT22;5065;46.942;7.432;2023-08-06T07:51:29;17.70;99.90
10051;DHT22;5065;46.942;7.432;2023-08-06T07:53:56;17.50;99.90
10051;DHT22;5065;46.942;7.432;2023-08-06T07:56:24;17.80;99.90
10051;DHT22;5065;46.942;7.432;2023-08-06T07:58:51;17.80;99.90
10051;DHT22;5065;46.942;7.432;2023-08-06T08:01:18;17.80;99.90
10051;DHT22;5065;46.942;7.432;2023-08-06T08:03:46;17.90;99.90
10051;DHT22;5065;46.942;7.432;2023-08-06T08:06:13;17.90;99.90
10051;DHT22;5065;46.942;7.432;2023-08-06T08:08:40;17.90;99.90
10051;DHT22;5065;46.942;7.432;2023-08-06T08:11:07;18.00;99.90
10051;DHT22;5065;46.942;7.432;2023-08-06T08:13:36;18.20;99.90
10051;DHT22;5065;46.942;7.432;2023-08-06T08:16:03;18.10;99.90
10051;DHT22;5065;46.942;7.432;2023-08-06T08:18:30;18.10;99.90
10051;DHT22;5065;46.942;7.432;2023-08-06T08:20:57;18.20;99.90
10051;DHT22;5065;46.942;7.432;2023-08-06T08:23:25;18.20;99.90
10051;DHT22;5065;46.942;7.432;2023-08-06T08:25:57;18.30;99.90
10051;DHT22;5065;46.942;7.432;2023-08-06T08:28:30;18.60;99.90
10051;DHT22;5065;46.942;7.432;2023-08-06T08:30:59;18.80;99.90
10051;DHT22;5065;46.942;7.432;2023-08-06T08:33:26;19.10;99.90
10051;DHT22;5065;46.942;7.432;2023-08-06T08:35:56;19.40;99.90
10051;DHT22;5065;46.942;7.432;2023-08-06T08:38:23;19.70;99.90
10051;DHT22;5065;46.942;7.432;2023-08-06T08:40:53;19.90;99.90
10051;DHT22;5065;46.942;7.432;2023-08-06T08:43:21;20.10;99.90
10051;DHT22;5065;46.942;7.432;2023-08-06T08:45:50;20.10;99.90
10051;DHT22;5065;46.942;7.432;2023-08-06T08:48:19;20.10;99.90
10051;DHT22;5065;46.942;7.432;2023-08-06T08:50:49;20.00;99.90
10051;DHT22;5065;46.942;7.432;2023-08-06T08:53:17;20.00;99.90
10051;DHT22;5065;46.942;7.432;2023-08-06T08:55:48;20.00;99.90
10051;DHT22;5065;46.942;7.432;2023-08-06T08:58:16;20.20;99.90
10051;DHT22;5065;46.942;7.432;2023-08-06T09:00:43;20.40;99.90
10051;DHT22;5065;46.942;7.432;2023-08-06T09:03:12;20.70;99.90
10051;DHT22;5065;46.942;7.432;2023-08-06T09:05:44;20.90;99.90
10051;DHT22;5065;46.942;7.432;2023-08-06T09:08:15;21.20;99.90
10051;DHT22;5065;46.942;7.432;2023-08-06T09:10:44;21.30;99.90
10051;DHT22;5065;46.942;7.432;2023-08-06T09:13:21;21.30;99.90
10051;DHT22;5065;46.942;7.432;2023-08-06T09:15:49;21.20;99.90
10051;DHT22;5065;46.942;7.432;2023-08-06T09:18:25;21.10;99.90
10051;DHT22;5065;46.942;7.432;2023-08-06T09:20:59;20.90;99.90
10051;DHT22;5065;46.942;7.432;2023-08-06T09:23:29;20.70;99.90
10051;DHT22;5065;46.942;7.432;2023-08-06T09:25:57;20.60;99.90
10051;DHT22;5065;46.942;7.432;2023-08-06T09:28:24;20.40;99.90
10051;DHT22;5065;46.942;7.432;2023-08-06T09:30:52;20.10;99.90
10051;DHT22;5065;46.942;7.432;2023-08-06T09:33:22;19.90;99.90
10051;DHT22;5065;46.942;7.432;2023-08-06T09:35:50;19.70;99.90
10051;DHT22;5065;46.942;7.432;2023-08-06T09:38:18;19.50;99.90
10051;DHT22;5065;46.942;7.432;2023-08-06T09:40:46;19.40;99.90
10051;DHT22;5065;46.942;7.432;2023-08-06T09:43:14;19.40;99.90
10051;DHT22;5065;46.942;7.432;2023-08-06T09:45:41;19.20;99.90
10051;DHT22;5065;46.942;7.432;2023-08-06T09:48:10;19.10;99.90
10051;DHT22;5065;46.942;7.432;2023-08-06T09:50:39;19.00;99.90
10051;DHT22;5065;46.942;7.432;2023-08-06T09:53:08;18.90;99.90
10051;DHT22;5065;46.942;7.432;2023-08-06T09:55:38;18.90;99.90
10051;DHT22;5065;46.942;7.432;2023-08-06T09:58:11;18.90;99.90
10051;DHT22;5065;46.942;7.432;2023-08-06T10:00:40;18.90;99.90
10051;DHT22;5065;46.942;7.432;2023-08-06T10:03:08;18.80;99.90
10051;DHT22;5065;46.942;7.432;2023-08-06T10:05:43;18.80;99.90
10051;DHT22;5065;46.942;7.432;2023-08-06T10:08:13;18.80;99.90
10051;DHT22;5065;46.942;7.432;2023-08-06T10:10:42;18.80;99.90
10051;DHT22;5065;46.942;7.432;2023-08-06T10:13:10;18.80;99.90
10051;DHT22;5065;46.942;7.432;2023-08-06T10:15:41;18.80;99.90
10051;DHT22;5065;46.942;7.432;2023-08-06T10:18:09;18.80;99.90
10051;DHT22;5065;46.942;7.432;2023-08-06T10:20:42;18.80;99.90
10051;DHT22;5065;46.942;7.432;2023-08-06T10:23:09;18.80;99.90
10051;DHT22;5065;46.942;7.432;2023-08-06T10:25:42;18.80;99.90
10051;DHT22;5065;46.942;7.432;2023-08-06T10:28:10;18.80;99.90
10051;DHT22;5065;46.942;7.432;2023-08-06T10:30:42;18.90;99.90
10051;DHT22;5065;46.942;7.432;2023-08-06T10:33:11;18.90;99.90
10051;DHT22;5065;46.942;7.432;2023-08-06T10:35:40;19.00;99.90
10051;DHT22;5065;46.942;7.432;2023-08-06T10:38:10;19.10;99.90
10051;DHT22;5065;46.942;7.432;2023-08-06T10:40:40;19.10;99.90
10051;DHT22;5065;46.942;7.432;2023-08-06T10:43:25;19.10;99.90
10051;DHT22;5065;46.942;7.432;2023-08-06T10:45:52;19.10;99.90
10051;DHT22;5065;46.942;7.432;2023-08-06T10:48:29;19.10;99.90
10051;DHT22;5065;46.942;7.432;2023-08-06T10:50:57;19.00;99.90
10051;DHT22;5065;46.942;7.432;2023-08-06T10:53:24;19.00;99.90
10051;DHT22;5065;46.942;7.432;2023-08-06T10:55:52;19.10;99.90
10051;DHT22;5065;46.942;7.432;2023-08-06T10:58:20;19.00;99.90
10051;DHT22;5065;46.942;7.432;2023-08-06T11:00:47;19.00;99.90
10051;DHT22;5065;46.942;7.432;2023-08-06T11:03:15;19.00;99.90
10051;DHT22;5065;46.942;7.432;2023-08-06T11:05:48;19.00;99.90
10051;DHT22;5065;46.942;7.432;2023-08-06T11:08:26;19.00;99.90
10051;DHT22;5065;46.942;7.432;2023-08-06T11:10:54;19.00;99.90
10051;DHT22;5065;46.942;7.432;2023-08-06T11:13:23;19.00;99.90
10051;DHT22;5065;46.942;7.432;2023-08-06T11:15:52;19.10;99.90
10051;DHT22;5065;46.942;7.432;2023-08-06T11:18:20;19.10;99.90
10051;DHT22;5065;46.942;7.432;2023-08-06T11:20:47;19.20;99.90
10051;DHT22;5065;46.942;7.432;2023-08-06T11:23:15;19.20;99.90
10051;DHT22;5065;46.942;7.432;2023-08-06T11:25:44;19.20;99.90
10051;DHT22;5065;46.942;7.432;2023-08-06T11:28:11;19.20;99.90
10051;DHT22;5065;46.942;7.432;2023-08-06T11:30:40;19.20;99.90
10051;DHT22;5065;46.942;7.432;2023-08-06T11:33:07;19.30;99.90
10051;DHT22;5065;46.942;7.432;2023-08-06T11:35:36;19.30;99.90
10051;DHT22;5065;46.942;7.432;2023-08-06T11:38:03;19.30;99.90
10051;DHT22;5065;46.942;7.432;2023-08-06T11:40:31;19.30;99.90
10051;DHT22;5065;46.942;7.432;2023-08-06T11:42:59;19.40;99.90
10051;DHT22;5065;46.942;7.432;2023-08-06T11:45:26;19.50;99.90
10051;DHT22;5065;46.942;7.432;2023-08-06T11:47:55;19.50;99.90
10051;DHT22;5065;46.942;7.432;2023-08-06T11:50:23;19.50;99.90
10051;DHT22;5065;46.942;7.432;2023-08-06T11:52:53;19.60;99.90
10051;DHT22;5065;46.942;7.432;2023-08-06T11:55:23;19.70;99.90
10051;DHT22;5065;46.942;7.432;2023-08-06T11:57:51;19.70;99.90
10051;DHT22;5065;46.942;7.432;2023-08-06T12:00:18;19.80;99.90
10051;DHT22;5065;46.942;7.432;2023-08-06T12:04:30;19.80;99.90
10051;DHT22;5065;46.942;7.432;2023-08-06T12:06:05;19.70;99.90
10051;DHT22;5065;46.942;7.432;2023-08-06T12:08:32;19.60;99.90
10051;DHT22;5065;46.942;7.432;2023-08-06T12:11:00;19.50;99.90
10051;DHT22;5065;46.942;7.432;2023-08-06T12:13:27;19.40;99.90
10051;DHT22;5065;46.942;7.432;2023-08-06T12:15:55;19.30;99.90
10051;DHT22;5065;46.942;7.432;2023-08-06T12:18:23;19.20;99.90
10051;DHT22;5065;46.942;7.432;2023-08-06T12:20:50;19.20;99.90
10051;DHT22;5065;46.942;7.432;2023-08-06T12:23:18;19.20;99.90
10051;DHT22;5065;46.942;7.432;2023-08-06T12:28:52;19.20;99.90
10051;DHT22;5065;46.942;7.432;2023-08-06T12:31:21;19.20;99.90
10051;DHT22;5065;46.942;7.432;2023-08-06T12:33:48;19.30;99.90
10051;DHT22;5065;46.942;7.432;2023-08-06T12:36:15;19.30;99.90
10051;DHT22;5065;46.942;7.432;2023-08-06T12:38:43;19.30;99.90
10051;DHT22;5065;46.942;7.432;2023-08-06T12:41:10;19.30;99.90
10051;DHT22;5065;46.942;7.432;2023-08-06T12:43:38;19.40;99.90
10051;DHT22;5065;46.942;7.432;2023-08-06T12:46:05;19.40;99.90
10051;DHT22;5065;46.942;7.432;2023-08-06T12:48:32;19.40;99.90
10051;DHT22;5065;46.942;7.432;2023-08-06T12:50:59;19.40;99.90
10051;DHT22;5065;46.942;7.432;2023-08-06T12:53:26;19.30;99.90
10051;DHT22;5065;46.942;7.432;2023-08-06T12:55:55;19.20;99.90
10051;DHT22;5065;46.942;7.432;2023-08-06T12:58:22;19.30;99.90
10051;DHT22;5065;46.942;7.432;2023-08-06T13:00:49;19.10;99.90
10051;DHT22;5065;46.942;7.432;2023-08-06T13:03:16;19.10;99.90
10051;DHT22;5065;46.942;7.432;2023-08-06T13:05:43;19.10;99.90
10051;DHT22;5065;46.942;7.432;2023-08-06T13:08:10;19.10;99.90
10051;DHT22;5065;46.942;7.432;2023-08-06T13:10:38;19.10;99.90
10051;DHT22;5065;46.942;7.432;2023-08-06T13:13:06;19.10;99.90
10051;DHT22;5065;46.942;7.432;2023-08-06T13:15:35;19.10;99.90
10051;DHT22;5065;46.942;7.432;2023-08-06T13:18:02;19.20;99.90
10051;DHT22;5065;46.942;7.432;2023-08-06T13:20:30;19.20;99.90
10051;DHT22;5065;46.942;7.432;2023-08-06T13:22:58;19.30;99.90
10051;DHT22;5065;46.942;7.432;2023-08-06T13:25:26;19.40;99.90
10051;DHT22;5065;46.942;7.432;2023-08-06T13:27:54;19.40;99.90
10051;DHT22;5065;46.942;7.432;2023-08-06T13:30:22;19.40;99.90
10051;DHT22;5065;46.942;7.432;2023-08-06T13:32:49;19.40;99.90
10051;DHT22;5065;46.942;7.432;2023-08-06T13:35:17;19.40;99.90
10051;DHT22;5065;46.942;7.432;2023-08-06T13:37:44;19.40;99.90
10051;DHT22;5065;46.942;7.432;2023-08-06T13:40:12;19.40;99.90
10051;DHT22;5065;46.942;7.432;2023-08-06T13:42:39;19.40;99.90
10051;DHT22;5065;46.942;7.432;2023-08-06T13:45:07;19.40;99.90
10051;DHT22;5065;46.942;7.432;2023-08-06T13:47:36;19.40;99.90
10051;DHT22;5065;46.942;7.432;2023-08-06T13:50:03;19.50;99.90
10051;DHT22;5065;46.942;7.432;2023-08-06T13:52:35;19.40;99.90
10051;DHT22;5065;46.942;7.432;2023-08-06T13:55:02;19.50;99.90
10051;DHT22;5065;46.942;7.432;2023-08-06T13:57:30;19.50;99.90
10051;DHT22;5065;46.942;7.432;2023-08-06T14:00:00;19.50;99.90
10051;DHT22;5065;46.942;7.432;2023-08-06T14:02:27;19.40;99.90
10051;DHT22;5065;46.942;7.432;2023-08-06T14:04:56;19.40;99.90
10051;DHT22;5065;46.942;7.432;2023-08-06T14:07:25;19.30;99.90
10051;DHT22;5065;46.942;7.432;2023-08-06T14:09:52;19.30;99.90
10051;DHT22;5065;46.942;7.432;2023-08-06T14:12:19;19.30;99.90
10051;DHT22;5065;46.942;7.432;2023-08-06T14:14:46;19.30;99.90
10051;DHT22;5065;46.942;7.432;2023-08-06T14:17:13;19.30;99.90
10051;DHT22;5065;46.942;7.432;2023-08-06T14:19:41;19.30;99.90
10051;DHT22;5065;46.942;7.432;2023-08-06T14:22:10;19.30;99.90
10051;DHT22;5065;46.942;7.432;2023-08-06T14:24:37;19.30;99.90
10051;DHT22;5065;46.942;7.432;2023-08-06T14:27:04;19.30;99.90
10051;DHT22;5065;46.942;7.432;2023-08-06T14:29:32;19.30;99.90
10051;DHT22;5065;46.942;7.432;2023-08-06T14:31:59;19.10;99.90
10051;DHT22;5065;46.942;7.432;2023-08-06T14:34:26;19.20;99.90
10051;DHT22;5065;46.942;7.432;2023-08-06T14:36:53;19.20;99.90
10051;DHT22;5065;46.942;7.432;2023-08-06T14:39:22;19.10;99.90
10051;DHT22;5065;46.942;7.432;2023-08-06T14:41:49;19.00;99.90
10051;DHT22;5065;46.942;7.432;2023-08-06T14:44:16;18.80;99.90
10051;DHT22;5065;46.942;7.432;2023-08-06T14:46:43;18.70;99.90
10051;DHT22;5065;46.942;7.432;2023-08-06T14:49:11;18.60;99.90
10051;DHT22;5065;46.942;7.432;2023-08-06T14:51:38;18.50;99.90
10051;DHT22;5065;46.942;7.432;2023-08-06T14:54:05;18.50;99.90
10051;DHT22;5065;46.942;7.432;2023-08-06T14:56:34;18.50;99.90
10051;DHT22;5065;46.942;7.432;2023-08-06T14:59:01;18.60;99.90
10051;DHT22;5065;46.942;7.432;2023-08-06T15:01:28;18.60;99.90
10051;DHT22;5065;46.942;7.432;2023-08-06T15:03:55;18.60;99.90
10051;DHT22;5065;46.942;7.432;2023-08-06T15:06:22;18.60;99.90
10051;DHT22;5065;46.942;7.432;2023-08-06T15:08:49;18.70;99.90
10051;DHT22;5065;46.942;7.432;2023-08-06T15:11:17;18.70;99.90
10051;DHT22;5065;46.942;7.432;2023-08-06T15:13:45;18.60;99.90
10051;DHT22;5065;46.942;7.432;2023-08-06T15:16:12;18.70;99.90
10051;DHT22;5065;46.942;7.432;2023-08-06T15:18:39;18.80;99.90
10051;DHT22;5065;46.942;7.432;2023-08-06T15:21:07;18.60;99.90
10051;DHT22;5065;46.942;7.432;2023-08-06T15:23:35;18.60;99.90
10051;DHT22;5065;46.942;7.432;2023-08-06T15:26:02;18.70;99.90
10051;DHT22;5065;46.942;7.432;2023-08-06T15:28:30;18.60;99.90
10051;DHT22;5065;46.942;7.432;2023-08-06T15:30:58;18.60;99.90
10051;DHT22;5065;46.942;7.432;2023-08-06T15:33:26;18.60;99.90
10051;DHT22;5065;46.942;7.432;2023-08-06T15:35:53;18.70;99.90
10051;DHT22;5065;46.942;7.432;2023-08-06T15:38:20;18.60;99.90
10051;DHT22;5065;46.942;7.432;2023-08-06T15:40:47;18.40;99.90
10051;DHT22;5065;46.942;7.432;2023-08-06T15:43:14;18.70;99.90
10051;DHT22;5065;46.942;7.432;2023-08-06T15:45:41;18.70;99.90
10051;DHT22;5065;46.942;7.432;2023-08-06T15:48:10;18.70;99.90
10051;DHT22;5065;46.942;7.432;2023-08-06T15:50:37;18.70;99.90
10051;DHT22;5065;46.942;7.432;2023-08-06T15:53:13;18.70;99.90